Weather at Gilbert Emergency Hospital Heliport [CLOSED]

Public forecast

Using degrees Fahrenheit for public forecast. Weather courtesy of forecast.io.

Closest aviation weather report (METAR) to Gilbert Emergency Hospital Heliport

Closest report is Phoenix-Mesa-Gateway Airport, 1.7 nm (3.1 km) ESE. Retrieved 2021/06/21 10:35 UTC (0 seconds ago):

KIWA 211035Z AUTO 09006KT 10SM 30/13 A2985 RMK AO2 T03050128

Closest aviation forecast (TAF) to Gilbert Emergency Hospital Heliport

Closest forecast is Phoenix-Mesa-Gateway Airport, 1.7 nm (3.1 km) ESE. Retrieved 2021/06/21 06:24 UTC (4 hours ago):

TAF KIWA 210520Z 2106/2206 25010KT P6SM SKC FM210800 12006KT P6SM SKC FM211700 27012KT P6SM SKC FM220300 27007KT P6SM SKC AMD LTD TO CLD VIS AND WIND TIL 211200